createdAt,value
2017-12-05T00:00:13.457Z,4.40
2017-12-05T00:02:45.166Z,4.30
2017-12-05T00:05:17.377Z,4.90
2017-12-05T00:07:47.746Z,4.30
2017-12-05T00:10:18.999Z,4.40
2017-12-05T00:12:50.147Z,4.40
2017-12-05T00:15:25.315Z,4.50
2017-12-05T00:17:58.364Z,4.40
2017-12-05T00:20:29.206Z,4.40
2017-12-05T00:23:00.337Z,4.50
2017-12-05T00:25:34.447Z,4.50
2017-12-05T00:28:06.107Z,4.50
2017-12-05T00:30:37.185Z,4.60
2017-12-05T00:33:12.176Z,4.50
2017-12-05T00:35:45.886Z,4.50
2017-12-05T00:38:25.107Z,4.50
2017-12-05T00:41:04.386Z,4.60
2017-12-05T00:43:35.497Z,4.60
2017-12-05T00:46:07.586Z,4.70
2017-12-05T00:48:39.106Z,4.60
2017-12-05T00:51:10.755Z,4.60
2017-12-05T00:53:43.446Z,4.50
2017-12-05T00:56:14.116Z,4.50
2017-12-05T00:58:50.126Z,4.40
2017-12-05T01:01:21.846Z,4.40
2017-12-05T01:03:53.975Z,4.40
2017-12-05T01:06:26.159Z,4.30
2017-12-05T01:08:57.197Z,4.30
2017-12-05T01:11:28.817Z,4.20
2017-12-05T01:13:59.757Z,4.20
2017-12-05T01:16:31.506Z,4.20
2017-12-05T01:19:03.877Z,4.20
2017-12-05T01:21:35.157Z,4.20
2017-12-05T01:24:10.887Z,4.20
2017-12-05T01:26:41.476Z,4.20
2017-12-05T01:29:13.157Z,4.20
2017-12-05T01:31:47.676Z,4.20
2017-12-05T01:34:18.927Z,4.20
2017-12-05T01:36:51.087Z,4.20
2017-12-05T01:39:22.486Z,4.20
2017-12-05T01:41:54.406Z,4.10
2017-12-05T01:44:24.866Z,4.10
2017-12-05T01:46:55.867Z,4.10
2017-12-05T01:49:28.747Z,4.10
2017-12-05T01:52:02.657Z,4.10
2017-12-05T01:54:34.007Z,4.20
2017-12-05T01:57:05.966Z,4.20
2017-12-05T01:59:37.937Z,4.20
2017-12-05T02:02:10.709Z,4.20
2017-12-05T02:04:42.876Z,4.30
2017-12-05T02:07:17.153Z,4.30
2017-12-05T02:09:53.347Z,4.30
2017-12-05T02:12:24.527Z,4.40
2017-12-05T02:14:57.577Z,4.50
2017-12-05T02:17:31.286Z,4.40
2017-12-05T02:20:07.376Z,4.50
2017-12-05T02:22:40.507Z,4.40
2017-12-05T02:25:14.956Z,4.30
2017-12-05T02:27:49.787Z,4.40
2017-12-05T02:30:21.647Z,4.30
2017-12-05T02:32:52.796Z,4.40
2017-12-05T02:35:24.136Z,4.40
2017-12-05T02:37:57.767Z,4.40
2017-12-05T02:40:41.167Z,4.40
2017-12-05T02:43:13.497Z,4.50
2017-12-05T02:45:45.406Z,4.50
2017-12-05T02:48:16.947Z,4.40
2017-12-05T02:50:49.768Z,4.40
2017-12-05T02:53:23.937Z,4.50
2017-12-05T02:55:55.428Z,4.50
2017-12-05T02:58:27.037Z,4.60
2017-12-05T03:00:59.317Z,4.60
2017-12-05T03:03:31.277Z,4.60
2017-12-05T03:06:03.857Z,4.60
2017-12-05T03:08:35.906Z,4.70
2017-12-05T03:11:11.457Z,4.70
2017-12-05T03:13:43.106Z,4.70
2017-12-05T03:16:15.387Z,4.80
2017-12-05T03:18:48.167Z,4.70
2017-12-05T03:21:20.165Z,4.70
2017-12-05T03:23:54.436Z,4.80
2017-12-05T03:26:25.687Z,4.80
2017-12-05T03:29:00.470Z,4.70
2017-12-05T03:31:32.067Z,4.70
2017-12-05T03:34:06.686Z,4.70
2017-12-05T03:36:37.667Z,4.70
2017-12-05T03:39:09.897Z,4.70
2017-12-05T03:41:40.867Z,4.70
2017-12-05T03:44:12.897Z,4.70
2017-12-05T03:46:44.357Z,4.70
2017-12-05T03:49:16.537Z,4.70
2017-12-05T03:51:48.586Z,4.60
2017-12-05T03:54:21.307Z,4.70
2017-12-05T03:56:53.016Z,4.70
2017-12-05T03:59:25.087Z,4.70
2017-12-05T04:01:57.267Z,4.80
2017-12-05T04:04:28.710Z,4.70
2017-12-05T04:06:59.127Z,4.70
2017-12-05T04:09:34.886Z,4.70
2017-12-05T04:12:06.517Z,4.60
2017-12-05T04:14:38.326Z,4.60
2017-12-05T04:17:09.537Z,4.60
2017-12-05T04:19:41.897Z,4.60
2017-12-05T04:22:13.157Z,4.60
2017-12-05T04:24:45.007Z,4.60
2017-12-05T04:27:16.558Z,4.70
2017-12-05T04:29:47.697Z,4.70
2017-12-05T04:32:19.766Z,4.70
2017-12-05T04:34:55.480Z,4.80
2017-12-05T04:37:27.787Z,4.80
2017-12-05T04:39:59.847Z,4.80
2017-12-05T04:42:31.088Z,4.80
2017-12-05T04:45:08.526Z,4.80
2017-12-05T04:47:40.957Z,4.80
2017-12-05T04:50:12.637Z,4.80
2017-12-05T04:52:45.426Z,4.80
2017-12-05T04:55:17.487Z,4.70
2017-12-05T04:57:51.486Z,4.60
2017-12-05T05:00:25.307Z,4.60
2017-12-05T05:02:57.637Z,4.70
2017-12-05T05:05:29.467Z,4.70
2017-12-05T05:08:00.187Z,4.70
2017-12-05T05:10:32.001Z,4.80
2017-12-05T05:13:05.287Z,4.80
2017-12-05T05:15:38.990Z,4.70
2017-12-05T05:18:10.224Z,4.70
2017-12-05T05:20:46.171Z,4.60
2017-12-05T05:23:17.035Z,4.60
2017-12-05T05:25:49.288Z,4.60
2017-12-05T05:28:20.576Z,4.70
2017-12-05T05:30:52.477Z,4.70
2017-12-05T05:33:24.567Z,4.70
2017-12-05T05:35:58.997Z,4.70
2017-12-05T05:38:30.738Z,4.70
2017-12-05T05:41:04.147Z,4.60
2017-12-05T05:43:35.107Z,4.60
2017-12-05T05:46:06.926Z,4.60
2017-12-05T05:48:37.507Z,4.50
2017-12-05T05:51:10.756Z,4.40
2017-12-05T05:53:42.197Z,4.40
2017-12-05T05:56:18.157Z,4.40
2017-12-05T05:58:49.187Z,4.40
2017-12-05T06:01:23.516Z,4.50
2017-12-05T06:03:55.267Z,4.50
2017-12-05T06:06:28.376Z,4.50
2017-12-05T06:09:00.117Z,4.50
2017-12-05T06:11:32.416Z,4.50
2017-12-05T06:14:04.136Z,4.50
2017-12-05T06:16:35.476Z,4.50
2017-12-05T06:19:13.326Z,4.40
2017-12-05T06:21:45.247Z,4.40
2017-12-05T06:24:19.187Z,4.50
2017-12-05T06:26:52.957Z,4.60
2017-12-05T06:29:24.236Z,4.70
2017-12-05T06:31:56.486Z,4.70
2017-12-05T06:34:28.946Z,4.70
2017-12-05T06:37:01.167Z,4.70
2017-12-05T06:39:40.477Z,4.70
2017-12-05T06:42:17.432Z,4.70
2017-12-05T06:44:52.425Z,4.80
2017-12-05T06:47:30.879Z,4.70
2017-12-05T06:50:03.742Z,4.70
2017-12-05T06:52:35.620Z,4.80
2017-12-05T06:55:09.951Z,4.80
2017-12-05T06:57:45.797Z,4.90
2017-12-05T07:00:20.486Z,4.90
2017-12-05T07:02:54.226Z,5.00
2017-12-05T07:22:14.003Z,5.10
2017-12-05T07:24:44.773Z,5.00
2017-12-05T07:27:16.801Z,5.20
2017-12-05T07:29:49.321Z,5.40
2017-12-05T07:32:22.772Z,5.40
2017-12-05T07:34:54.014Z,5.40
2017-12-05T07:37:24.853Z,5.20
2017-12-05T07:39:56.530Z,5.10
2017-12-05T07:42:30.315Z,5.10
2017-12-05T07:45:03.813Z,5.10
2017-12-05T07:47:34.963Z,5.00
2017-12-05T07:50:07.363Z,5.10
2017-12-05T07:52:37.741Z,5.10
2017-12-05T07:55:10.112Z,5.80
2017-12-05T07:57:43.214Z,5.50
2017-12-05T08:00:17.492Z,5.30
2017-12-05T08:02:50.622Z,5.20
2017-12-05T08:05:22.003Z,5.10
2017-12-05T08:07:56.832Z,5.10
2017-12-05T08:10:28.063Z,5.00
2017-12-05T08:12:59.212Z,5.00
2017-12-05T08:15:33.283Z,5.00
2017-12-05T08:18:05.351Z,5.00
2017-12-05T08:20:36.602Z,5.00
2017-12-05T08:23:08.523Z,5.00
2017-12-05T08:25:41.492Z,5.10
2017-12-05T08:28:16.543Z,5.10
2017-12-05T08:30:47.941Z,5.10
2017-12-05T08:33:20.643Z,5.00
2017-12-05T08:35:52.544Z,5.00
2017-12-05T08:38:24.631Z,5.10
2017-12-05T08:41:02.442Z,5.10
2017-12-05T08:43:36.351Z,5.10
2017-12-05T08:46:07.891Z,5.20
2017-12-05T08:48:39.992Z,4.90
2017-12-05T08:51:14.272Z,5.40
2017-12-05T08:53:45.552Z,5.40
2017-12-05T08:56:17.181Z,5.40
2017-12-05T08:58:48.622Z,5.40
2017-12-05T09:01:21.002Z,5.40
2017-12-05T09:03:56.022Z,5.40
2017-12-05T09:06:28.402Z,5.40
2017-12-05T09:09:02.502Z,5.50
2017-12-05T09:11:33.952Z,5.60
2017-12-05T09:14:06.563Z,5.70
2017-12-05T09:16:40.502Z,5.80
2017-12-05T09:19:12.502Z,5.90
2017-12-05T09:21:46.621Z,6.00
2017-12-05T09:24:20.971Z,6.00
2017-12-05T09:26:53.752Z,6.00
2017-12-05T09:29:28.981Z,6.00
2017-12-05T09:32:00.912Z,6.00
2017-12-05T09:34:34.202Z,6.00
2017-12-05T09:37:09.341Z,6.00
2017-12-05T09:39:40.532Z,6.10
2017-12-05T09:42:12.355Z,6.20
2017-12-05T09:44:43.403Z,6.20
2017-12-05T09:47:15.364Z,6.40
2017-12-05T09:49:46.701Z,6.40
2017-12-05T09:52:19.073Z,6.30
2017-12-05T09:54:50.731Z,6.40
2017-12-05T09:57:22.212Z,6.30
2017-12-05T09:59:55.512Z,6.30
2017-12-05T10:02:28.962Z,6.30
2017-12-05T10:05:00.003Z,6.40
2017-12-05T10:07:31.762Z,6.40
2017-12-05T10:10:05.171Z,6.40
2017-12-05T10:12:38.859Z,6.30
2017-12-05T10:15:10.341Z,6.50
2017-12-05T10:17:42.471Z,6.60
2017-12-05T10:20:13.519Z,6.60
2017-12-05T10:22:45.581Z,6.80
2017-12-05T10:25:27.516Z,7.00
2017-12-05T10:27:59.641Z,7.20
2017-12-05T10:30:31.911Z,7.40
2017-12-05T10:33:04.182Z,7.50
2017-12-05T10:35:36.073Z,7.60
2017-12-05T10:38:07.322Z,7.60
2017-12-05T10:40:38.731Z,7.60
2017-12-05T10:43:12.751Z,7.50
2017-12-05T10:45:46.241Z,7.40
2017-12-05T10:48:17.931Z,7.40
2017-12-05T10:50:50.371Z,7.20
2017-12-05T10:53:23.492Z,7.20
2017-12-05T10:55:55.002Z,7.30
2017-12-05T10:58:27.281Z,7.30
2017-12-05T11:00:59.142Z,7.10
2017-12-05T11:03:30.321Z,7.10
2017-12-05T11:06:02.481Z,7.10
2017-12-05T11:08:34.311Z,7.20
2017-12-05T11:11:09.522Z,7.20
2017-12-05T11:13:42.632Z,7.40
2017-12-05T11:16:14.780Z,7.50
2017-12-05T11:18:46.504Z,7.60
2017-12-05T11:21:20.412Z,7.60
2017-12-05T11:23:50.891Z,7.50
2017-12-05T11:26:30.432Z,7.70
2017-12-05T11:29:05.461Z,7.70
2017-12-05T11:31:38.442Z,7.60
2017-12-05T11:34:08.870Z,7.70
2017-12-05T11:36:39.852Z,7.50
2017-12-05T11:39:11.771Z,7.40
2017-12-05T11:41:43.012Z,7.40
2017-12-05T11:44:14.681Z,7.50
2017-12-05T11:46:47.252Z,7.60
2017-12-05T11:49:19.212Z,7.60
2017-12-05T11:51:52.550Z,7.60
2017-12-05T11:54:28.251Z,7.60
2017-12-05T11:57:02.462Z,7.60
2017-12-05T11:59:32.991Z,7.50
2017-12-05T12:02:06.292Z,7.60
2017-12-05T12:04:40.401Z,7.60
2017-12-05T12:07:11.433Z,7.60
2017-12-05T12:09:48.592Z,7.50
2017-12-05T12:12:20.592Z,7.50
2017-12-05T12:14:52.900Z,7.40
2017-12-05T12:17:24.351Z,7.40
2017-12-05T12:19:57.134Z,7.40
2017-12-05T12:22:29.362Z,7.50
2017-12-05T12:25:01.408Z,7.40
2017-12-05T12:27:34.451Z,7.50
2017-12-05T12:30:04.772Z,7.40
2017-12-05T12:32:36.123Z,7.50
2017-12-05T12:35:09.881Z,7.50
2017-12-05T12:37:41.025Z,7.50
2017-12-05T12:40:13.103Z,7.60
2017-12-05T12:42:48.125Z,7.70
2017-12-05T12:45:19.672Z,7.70
2017-12-05T12:47:56.141Z,7.60
2017-12-05T12:50:28.202Z,7.60
2017-12-05T12:53:00.162Z,7.50
2017-12-05T12:55:32.245Z,7.50
2017-12-05T12:58:04.552Z,7.50
2017-12-05T13:00:35.431Z,7.50
2017-12-05T13:03:07.943Z,7.50
2017-12-05T13:05:39.772Z,7.50
2017-12-05T13:08:11.671Z,7.40
2017-12-05T13:10:45.163Z,7.50
2017-12-05T13:13:16.921Z,7.50
2017-12-05T13:15:47.932Z,7.50
2017-12-05T13:18:19.471Z,7.50
2017-12-05T13:20:50.581Z,7.40
2017-12-05T13:23:21.972Z,7.50
2017-12-05T13:25:53.114Z,7.50
2017-12-05T13:28:25.283Z,7.50
2017-12-05T13:30:57.442Z,7.60
2017-12-05T13:33:30.602Z,7.60
2017-12-05T13:36:01.693Z,7.70
2017-12-05T13:38:33.071Z,7.60
2017-12-05T13:41:05.303Z,7.50
2017-12-05T13:43:36.373Z,7.50
2017-12-05T13:46:13.581Z,7.50
2017-12-05T13:48:45.382Z,7.50
2017-12-05T13:51:16.563Z,7.50
2017-12-05T13:53:51.962Z,7.40
2017-12-05T13:56:23.102Z,7.40
2017-12-05T13:58:56.911Z,7.50
2017-12-05T14:01:30.412Z,7.40
2017-12-05T14:04:01.861Z,7.40
2017-12-05T14:06:33.811Z,7.40
2017-12-05T14:09:05.982Z,7.40
2017-12-05T14:11:37.021Z,7.40
2017-12-05T14:14:08.999Z,7.40
2017-12-05T14:16:40.781Z,7.50
2017-12-05T14:19:12.492Z,7.50
2017-12-05T14:21:52.691Z,7.60
2017-12-05T14:24:22.911Z,7.60
2017-12-05T14:26:54.530Z,7.50
2017-12-05T14:29:28.161Z,7.40
2017-12-05T14:32:01.121Z,7.30
2017-12-05T14:34:35.126Z,7.20
2017-12-05T14:37:06.681Z,7.20
2017-12-05T14:39:38.622Z,7.20
2017-12-05T14:42:10.092Z,7.20
2017-12-05T14:44:41.851Z,7.30
2017-12-05T14:47:15.452Z,7.40
2017-12-05T14:49:46.942Z,7.60
2017-12-05T14:52:19.171Z,7.60
2017-12-05T14:54:51.451Z,7.60
2017-12-05T14:57:22.681Z,7.60
2017-12-05T14:59:55.151Z,7.60
2017-12-05T15:02:27.942Z,7.50
2017-12-05T15:04:58.261Z,7.50
2017-12-05T15:07:29.612Z,7.40
2017-12-05T15:10:00.952Z,7.20
2017-12-05T15:12:36.801Z,7.00
2017-12-05T15:15:08.552Z,7.00
2017-12-05T15:17:40.052Z,6.90
2017-12-05T15:20:11.671Z,6.80
2017-12-05T15:22:44.253Z,6.70
2017-12-05T15:25:16.201Z,6.50
2017-12-05T15:27:47.281Z,6.60
2017-12-05T15:30:21.562Z,6.50
2017-12-05T15:32:57.525Z,6.50
2017-12-05T15:35:29.992Z,6.50
2017-12-05T15:38:01.591Z,6.60
2017-12-05T15:40:35.282Z,6.50
2017-12-05T15:43:10.382Z,6.40
2017-12-05T15:45:44.491Z,6.40
2017-12-05T15:48:16.151Z,6.40
2017-12-05T15:50:47.300Z,6.30
2017-12-05T15:53:19.361Z,6.30
2017-12-05T15:55:51.021Z,6.30
2017-12-05T15:58:23.671Z,6.20
2017-12-05T16:00:56.061Z,6.10
2017-12-05T16:03:27.761Z,6.10
2017-12-05T16:06:00.563Z,6.00
2017-12-05T16:08:31.741Z,6.00
2017-12-05T16:11:03.192Z,6.00
2017-12-05T16:13:37.321Z,6.00
2017-12-05T16:16:09.982Z,6.00
2017-12-05T16:18:42.662Z,5.90
2017-12-05T16:21:14.841Z,5.90
2017-12-05T16:23:47.521Z,5.90
2017-12-05T16:26:21.823Z,5.80
2017-12-05T16:28:53.271Z,5.80
2017-12-05T16:31:25.241Z,5.70
2017-12-05T16:33:59.852Z,5.70
2017-12-05T16:36:31.722Z,5.70
2017-12-05T16:39:03.171Z,5.80
2017-12-05T16:41:35.561Z,5.70
2017-12-05T16:44:09.481Z,5.70
2017-12-05T16:46:41.001Z,5.70
2017-12-05T16:49:14.081Z,5.60
2017-12-05T16:51:45.533Z,5.60
2017-12-05T16:54:17.706Z,5.60
2017-12-05T16:56:49.571Z,5.60
2017-12-05T16:59:20.807Z,5.60
2017-12-05T17:01:53.024Z,5.60
2017-12-05T17:04:25.162Z,5.60
2017-12-05T17:06:56.182Z,5.50
2017-12-05T17:09:30.032Z,5.40
2017-12-05T17:12:04.421Z,5.40
2017-12-05T17:14:37.201Z,5.40
2017-12-05T17:17:10.191Z,5.40
2017-12-05T17:19:42.282Z,5.40
2017-12-05T17:22:17.172Z,5.30
2017-12-05T17:24:48.411Z,5.30
2017-12-05T17:27:20.282Z,5.30
2017-12-05T17:29:52.542Z,5.20
2017-12-05T17:32:24.442Z,5.20
2017-12-05T17:34:57.702Z,5.20
2017-12-05T17:37:30.112Z,5.10
2017-12-05T17:40:02.472Z,5.00
2017-12-05T17:42:33.681Z,5.00
2017-12-05T17:45:07.492Z,5.00
2017-12-05T17:47:39.151Z,5.00
2017-12-05T17:50:10.291Z,5.00
2017-12-05T17:52:42.041Z,5.00
2017-12-05T17:55:15.062Z,5.00
2017-12-05T17:57:47.501Z,5.00
2017-12-05T18:00:19.802Z,5.00
2017-12-05T18:02:51.941Z,4.90
2017-12-05T18:05:24.411Z,4.90
2017-12-05T18:07:55.611Z,4.90
2017-12-05T18:10:27.841Z,4.90
2017-12-05T18:13:01.113Z,4.80
2017-12-05T18:15:38.103Z,4.80
2017-12-05T18:18:08.871Z,4.80
2017-12-05T18:20:41.651Z,4.80
2017-12-05T18:23:13.772Z,4.70
2017-12-05T18:25:47.492Z,4.70
2017-12-05T18:28:23.623Z,4.70
2017-12-05T18:30:55.911Z,4.70
2017-12-05T18:33:27.092Z,4.60
2017-12-05T18:36:04.442Z,4.60
2017-12-05T18:38:36.822Z,4.60
2017-12-05T18:41:09.732Z,4.60
2017-12-05T18:43:41.702Z,4.60
2017-12-05T18:46:14.602Z,4.60
2017-12-05T18:48:47.781Z,4.60
2017-12-05T18:51:20.051Z,4.60
2017-12-05T18:53:52.932Z,4.60
2017-12-05T18:56:26.012Z,4.60
2017-12-05T18:58:58.582Z,4.70
2017-12-05T19:01:31.012Z,4.70
2017-12-05T19:04:02.475Z,4.70
2017-12-05T19:06:33.642Z,4.70
2017-12-05T19:09:06.332Z,4.60
2017-12-05T19:11:40.503Z,4.60
2017-12-05T19:14:14.941Z,4.50
2017-12-05T19:16:46.161Z,4.50
2017-12-05T19:19:18.121Z,4.60
2017-12-05T19:21:49.922Z,4.50
2017-12-05T19:24:21.013Z,4.50
2017-12-05T19:26:53.515Z,4.50
2017-12-05T19:29:29.972Z,4.60
2017-12-05T19:32:05.591Z,4.50
2017-12-05T19:34:38.631Z,4.50
2017-12-05T19:37:10.822Z,4.50
2017-12-05T19:39:42.741Z,4.50
2017-12-05T19:42:14.191Z,4.40
2017-12-05T19:44:46.082Z,4.40
2017-12-05T19:47:20.263Z,4.40
2017-12-05T19:49:52.743Z,4.40
2017-12-05T19:52:24.852Z,4.40
2017-12-05T19:54:59.122Z,4.30
2017-12-05T19:57:32.101Z,4.30
2017-12-05T20:00:03.751Z,4.30
2017-12-05T20:02:37.353Z,4.30
2017-12-05T20:05:08.842Z,4.20
2017-12-05T20:07:40.621Z,4.20
2017-12-05T20:10:11.911Z,4.20
2017-12-05T20:12:43.652Z,4.10
2017-12-05T20:15:15.014Z,4.10
2017-12-05T20:17:49.601Z,4.10
2017-12-05T20:20:21.331Z,4.10
2017-12-05T20:22:54.821Z,4.00
2017-12-05T20:25:25.963Z,4.00
2017-12-05T20:28:00.493Z,4.00
2017-12-05T20:30:35.182Z,4.00
2017-12-05T20:33:09.021Z,4.10
2017-12-05T20:35:41.022Z,4.10
2017-12-05T20:38:13.222Z,4.10
2017-12-05T20:40:45.502Z,4.20
2017-12-05T20:43:17.143Z,4.20
2017-12-05T20:45:52.601Z,4.20
2017-12-05T20:48:24.083Z,4.20
2017-12-05T20:50:57.611Z,4.20
2017-12-05T20:53:29.620Z,4.10
2017-12-05T20:56:01.913Z,4.10
2017-12-05T20:58:34.133Z,4.10
2017-12-05T21:01:05.122Z,4.10
2017-12-05T21:03:36.431Z,4.10
2017-12-05T21:06:06.642Z,4.10
2017-12-05T21:08:41.650Z,4.00
2017-12-05T21:11:14.353Z,4.00
2017-12-05T21:13:46.932Z,3.90
2017-12-05T21:16:20.322Z,3.90
2017-12-05T21:18:51.633Z,4.00
2017-12-05T21:21:26.192Z,4.10
2017-12-05T21:23:57.543Z,4.00
2017-12-05T21:26:29.501Z,4.00
2017-12-05T21:29:04.362Z,4.00
2017-12-05T21:31:42.532Z,3.90
2017-12-05T21:34:15.862Z,3.90
2017-12-05T21:36:47.481Z,3.90
2017-12-05T21:39:19.282Z,3.90
2017-12-05T21:41:51.301Z,3.80
2017-12-05T21:44:23.361Z,3.80
2017-12-05T21:46:55.882Z,3.80
2017-12-05T21:49:28.363Z,3.90
2017-12-05T21:52:02.032Z,3.90
2017-12-05T21:54:32.862Z,4.00
2017-12-05T21:57:04.970Z,4.00
2017-12-05T21:59:39.762Z,4.10
2017-12-05T22:02:11.242Z,4.10
2017-12-05T22:04:43.473Z,4.10
2017-12-05T22:07:14.970Z,4.10
2017-12-05T22:09:48.953Z,4.10
2017-12-05T22:12:20.521Z,4.10
2017-12-05T22:14:51.362Z,4.10
2017-12-05T22:17:21.850Z,4.00
2017-12-05T22:19:55.132Z,4.10
2017-12-05T22:22:26.792Z,4.10
2017-12-05T22:24:58.552Z,4.10
2017-12-05T22:27:30.142Z,4.10
2017-12-05T22:30:02.202Z,4.20
2017-12-05T22:32:33.002Z,4.20
2017-12-05T22:35:06.555Z,4.20
2017-12-05T22:37:38.252Z,4.20
2017-12-05T22:40:10.422Z,4.20
2017-12-05T22:42:42.611Z,4.10
2017-12-05T22:45:14.552Z,4.10
2017-12-05T22:47:45.498Z,4.10
2017-12-05T22:50:18.192Z,4.10
2017-12-05T22:52:51.162Z,4.00
2017-12-05T22:55:24.458Z,4.00
2017-12-05T22:57:54.872Z,4.00
2017-12-05T23:00:26.831Z,4.00
2017-12-05T23:02:59.501Z,3.90
2017-12-05T23:05:33.732Z,4.00
2017-12-05T23:08:09.781Z,4.00
2017-12-05T23:10:41.232Z,4.00
2017-12-05T23:13:13.300Z,4.00
2017-12-05T23:15:50.282Z,4.10
2017-12-05T23:18:22.071Z,4.00
2017-12-05T23:20:55.852Z,4.00
2017-12-05T23:23:29.762Z,4.10
2017-12-05T23:26:03.971Z,4.00
2017-12-05T23:28:44.741Z,4.10
2017-12-05T23:31:16.082Z,4.00
2017-12-05T23:33:49.492Z,4.10
2017-12-05T23:36:23.901Z,4.00
2017-12-05T23:38:56.682Z,4.00
2017-12-05T23:41:28.342Z,3.90
2017-12-05T23:44:00.402Z,3.90
2017-12-05T23:46:35.235Z,3.90
2017-12-05T23:49:11.182Z,3.90
2017-12-05T23:51:43.381Z,3.90
2017-12-05T23:54:16.541Z,3.80
2017-12-05T23:56:47.485Z,3.80
2017-12-05T23:59:18.823Z,3.80
